createdAt,value
2023-05-20T00:01:51.021Z,101650.00
2023-05-20T00:04:18.486Z,101644.00
2023-05-20T00:06:45.850Z,101642.00
2023-05-20T00:09:13.089Z,101637.00
2023-05-20T00:11:40.212Z,101638.00
2023-05-20T00:14:07.509Z,101630.00
2023-05-20T00:16:34.934Z,101628.00
2023-05-20T00:19:02.140Z,101629.00
2023-05-20T00:21:29.840Z,101629.00
2023-05-20T00:23:58.963Z,101632.00
2023-05-20T00:26:26.941Z,101620.00
2023-05-20T00:28:54.054Z,101628.00
2023-05-20T00:31:21.805Z,101622.00
2023-05-20T00:33:49.126Z,101629.00
2023-05-20T00:36:16.195Z,101630.00
2023-05-20T00:38:43.383Z,101634.00
2023-05-20T00:41:11.212Z,101634.00
2023-05-20T00:43:38.331Z,101630.00
2023-05-20T00:46:05.532Z,101631.00
2023-05-20T00:48:44.479Z,101627.00
2023-05-20T00:51:14.708Z,101626.00
2023-05-20T00:53:43.733Z,101604.00
2023-05-20T00:56:12.131Z,101626.00
2023-05-20T00:58:40.689Z,101619.00
2023-05-20T01:01:07.874Z,101619.00
2023-05-20T01:03:35.802Z,101615.00
2023-05-20T01:06:03.765Z,101615.00
2023-05-20T01:08:31.353Z,101620.00
2023-05-20T01:11:20.746Z,101617.00
2023-05-20T01:13:55.828Z,101621.00
2023-05-20T01:16:25.192Z,101619.00
2023-05-20T01:18:57.430Z,101620.00
2023-05-20T01:21:27.572Z,101620.00
2023-05-20T01:23:54.993Z,101615.00
2023-05-20T01:26:22.260Z,101618.00
2023-05-20T01:28:51.282Z,101620.00
2023-05-20T01:31:25.053Z,101608.00
2023-05-20T01:33:58.528Z,101623.00
2023-05-20T01:36:28.681Z,101620.00
2023-05-20T01:38:58.123Z,101627.00
2023-05-20T01:41:27.413Z,101607.00
2023-05-20T01:43:56.501Z,101607.00
2023-05-20T01:46:23.658Z,101598.00
2023-05-20T01:48:50.951Z,101602.00
2023-05-20T01:51:18.063Z,101599.00
2023-05-20T01:53:45.694Z,101598.00
2023-05-20T01:56:13.402Z,101595.00
2023-05-20T01:58:40.710Z,101599.00
2023-05-20T02:01:07.756Z,101601.00
2023-05-20T02:03:34.859Z,101598.00
2023-05-20T02:06:02.055Z,101590.00
2023-05-20T02:08:29.254Z,101588.00
2023-05-20T02:10:56.256Z,101593.00
2023-05-20T02:13:23.359Z,101601.00
2023-05-20T02:15:51.916Z,101603.00
2023-05-20T02:18:19.045Z,101591.00
2023-05-20T02:20:49.693Z,101591.00
2023-05-20T02:23:16.872Z,101597.00
2023-05-20T02:25:44.425Z,101584.00
2023-05-20T02:28:11.472Z,101591.00
2023-05-20T02:30:39.447Z,101591.00
2023-05-20T02:33:07.211Z,101572.00
2023-05-20T02:35:34.889Z,101594.00
2023-05-20T02:38:02.062Z,101596.00
2023-05-20T02:40:29.127Z,101589.00
2023-05-20T02:42:56.068Z,101596.00
2023-05-20T02:45:23.048Z,101595.00
2023-05-20T02:47:50.465Z,101581.00
2023-05-20T02:50:17.854Z,101594.00
2023-05-20T02:52:45.771Z,101595.00
2023-05-20T02:55:13.026Z,101592.00
2023-05-20T02:57:40.078Z,101596.00
2023-05-20T03:00:13.374Z,101603.00
2023-05-20T03:02:40.528Z,101590.00
2023-05-20T03:05:08.230Z,101597.00
2023-05-20T03:07:36.472Z,101597.00
2023-05-20T03:10:05.027Z,101600.00
2023-05-20T03:12:32.132Z,101595.00
2023-05-20T03:15:00.358Z,101590.00
2023-05-20T03:17:27.569Z,101584.00
2023-05-20T03:19:54.609Z,101584.00
2023-05-20T03:22:21.976Z,101593.00
2023-05-20T03:24:49.081Z,101586.00
2023-05-20T03:27:16.163Z,101579.00
2023-05-20T03:29:43.271Z,101586.00
2023-05-20T03:32:11.071Z,101590.00
2023-05-20T03:34:38.465Z,101590.00
2023-05-20T03:37:06.072Z,101589.00
2023-05-20T03:39:33.134Z,101582.00
2023-05-20T03:42:00.223Z,101597.00
2023-05-20T03:44:27.338Z,101588.00
2023-05-20T03:46:54.426Z,101596.00
2023-05-20T03:49:21.897Z,101603.00
2023-05-20T03:51:48.879Z,101597.00
2023-05-20T03:54:17.509Z,101595.00
2023-05-20T03:56:47.040Z,101600.00
2023-05-20T03:59:14.025Z,101608.00
2023-05-20T04:01:41.253Z,101599.00
2023-05-20T04:04:08.613Z,101600.00
2023-05-20T04:06:36.113Z,101596.00
2023-05-20T04:09:03.771Z,101605.00
2023-05-20T04:11:31.114Z,101612.00
2023-05-20T04:14:00.480Z,101597.00
2023-05-20T04:16:30.168Z,101605.00
2023-05-20T04:18:59.335Z,101613.00
2023-05-20T04:21:26.589Z,101595.00
2023-05-20T04:23:53.624Z,101607.00
2023-05-20T04:26:21.665Z,101613.00
2023-05-20T04:28:49.788Z,101604.00
2023-05-20T04:31:17.257Z,101606.00
2023-05-20T04:33:44.642Z,101607.00
2023-05-20T04:36:16.434Z,101609.00
2023-05-20T04:38:44.773Z,101607.00
2023-05-20T04:41:12.154Z,101613.00
2023-05-20T04:43:40.494Z,101609.00
2023-05-20T04:46:07.951Z,101596.00
2023-05-20T04:48:35.416Z,101603.00
2023-05-20T04:51:03.227Z,101609.00
2023-05-20T04:53:33.977Z,101605.00
2023-05-20T04:56:01.169Z,101613.00
2023-05-20T04:58:30.244Z,101614.00
2023-05-20T05:00:58.060Z,101606.00
2023-05-20T05:03:25.032Z,101606.00
2023-05-20T05:05:57.814Z,101600.00
2023-05-20T05:08:26.988Z,101617.00
2023-05-20T05:10:54.261Z,101616.00
2023-05-20T05:13:21.318Z,101606.00
2023-05-20T05:15:48.382Z,101616.00
2023-05-20T05:18:18.799Z,101612.00
2023-05-20T05:20:45.946Z,101606.00
2023-05-20T05:23:13.196Z,101612.00
2023-05-20T05:25:40.462Z,101614.00
2023-05-20T05:28:07.500Z,101613.00
2023-05-20T05:30:34.570Z,101612.00
2023-05-20T05:33:01.832Z,101619.00
2023-05-20T05:35:29.497Z,101607.00
2023-05-20T05:37:57.012Z,101618.00
2023-05-20T05:40:24.044Z,101616.00
2023-05-20T05:42:51.248Z,101614.00
2023-05-20T05:45:18.224Z,101612.00
2023-05-20T05:47:46.075Z,101615.00
2023-05-20T05:50:13.134Z,101617.00
2023-05-20T05:52:40.170Z,101608.00
2023-05-20T05:55:09.037Z,101614.00
2023-05-20T05:57:36.247Z,101615.00
2023-05-20T06:00:05.118Z,101615.00
2023-05-20T06:02:36.522Z,101616.00
2023-05-20T06:05:04.581Z,101624.00
2023-05-20T06:07:31.962Z,101618.00
2023-05-20T06:09:59.526Z,101617.00
2023-05-20T06:12:29.565Z,101615.00
2023-05-20T06:14:56.602Z,101599.00
2023-05-20T06:17:23.858Z,101612.00
2023-05-20T06:19:51.129Z,101618.00
2023-05-20T06:22:18.166Z,101612.00
2023-05-20T06:24:45.207Z,101607.00
2023-05-20T06:27:12.673Z,101608.00
2023-05-20T06:29:40.965Z,101618.00
2023-05-20T06:32:10.235Z,101605.00
2023-05-20T06:34:38.186Z,101606.00
2023-05-20T06:37:05.966Z,101617.00
2023-05-20T06:39:32.929Z,101608.00
2023-05-20T06:42:02.997Z,101614.00
2023-05-20T06:44:31.348Z,101624.00
2023-05-20T06:46:58.455Z,101609.00
2023-05-20T06:49:25.824Z,101625.00
2023-05-20T06:51:52.848Z,101605.00
2023-05-20T06:54:19.981Z,101619.00
2023-05-20T06:56:47.029Z,101616.00
2023-05-20T06:59:14.304Z,101623.00
2023-05-20T07:01:41.624Z,101605.00
2023-05-20T07:04:08.865Z,101608.00
2023-05-20T07:06:36.201Z,101609.00
2023-05-20T07:09:03.558Z,101617.00
2023-05-20T07:11:30.726Z,101619.00
2023-05-20T07:13:57.719Z,101612.00
2023-05-20T07:16:24.953Z,101607.00
2023-05-20T07:18:52.047Z,101601.00
2023-05-20T07:21:19.333Z,101605.00
2023-05-20T07:23:46.509Z,101606.00
2023-05-20T07:26:13.687Z,101605.00
2023-05-20T07:28:40.887Z,101591.00
2023-05-20T07:31:11.748Z,101598.00
2023-05-20T07:33:39.394Z,101596.00
2023-05-20T07:36:08.019Z,101597.00
2023-05-20T07:41:05.302Z,101597.00
2023-05-20T07:43:32.524Z,101596.00
2023-05-20T07:45:59.703Z,101585.00
2023-05-20T07:48:27.387Z,101588.00
2023-05-20T07:50:57.399Z,101593.00
2023-05-20T07:53:24.432Z,101589.00
2023-05-20T07:55:51.635Z,101592.00
2023-05-20T07:58:18.745Z,101582.00
2023-05-20T08:00:45.893Z,101588.00
2023-05-20T08:03:14.266Z,101581.00
2023-05-20T08:05:42.240Z,101573.00
2023-05-20T08:08:10.661Z,101580.00
2023-05-20T08:10:37.900Z,101578.00
2023-05-20T08:13:05.237Z,101568.00
2023-05-20T08:15:32.461Z,101588.00
2023-05-20T08:17:59.670Z,101585.00
2023-05-20T08:20:26.802Z,101584.00
2023-05-20T08:22:53.882Z,101584.00
2023-05-20T08:25:21.277Z,101582.00
2023-05-20T08:27:48.372Z,101584.00
2023-05-20T08:30:15.590Z,101584.00
2023-05-20T08:32:42.839Z,101578.00
2023-05-20T08:35:10.605Z,101577.00
2023-05-20T08:37:37.877Z,101583.00
2023-05-20T08:40:05.679Z,101569.00
2023-05-20T08:42:32.695Z,101572.00
2023-05-20T08:45:01.970Z,101576.00
2023-05-20T08:47:29.313Z,101581.00
2023-05-20T08:49:56.488Z,101582.00
2023-05-20T08:52:24.882Z,101578.00
2023-05-20T08:54:54.180Z,101573.00
2023-05-20T08:57:22.488Z,101574.00
2023-05-20T08:59:49.646Z,101575.00
2023-05-20T09:02:16.886Z,101581.00
2023-05-20T09:04:43.976Z,101573.00
2023-05-20T09:07:11.251Z,101572.00
2023-05-20T09:09:38.605Z,101578.00
2023-05-20T09:12:06.256Z,101579.00
2023-05-20T09:14:33.418Z,101588.00
2023-05-20T09:17:00.688Z,101586.00
2023-05-20T09:19:27.946Z,101578.00
2023-05-20T09:21:55.548Z,101569.00
2023-05-20T09:24:27.136Z,101581.00
2023-05-20T09:26:54.552Z,101580.00
2023-05-20T09:29:21.997Z,101574.00
2023-05-20T09:31:50.596Z,101578.00
2023-05-20T09:34:18.282Z,101575.00
2023-05-20T09:36:45.960Z,101576.00
2023-05-20T09:39:25.948Z,101573.00
2023-05-20T09:42:10.146Z,101579.00
2023-05-20T09:44:38.743Z,101568.00
2023-05-20T09:47:08.817Z,101582.00
2023-05-20T09:49:38.110Z,101565.00
2023-05-20T09:52:06.269Z,101582.00
2023-05-20T09:54:36.827Z,101578.00
2023-05-20T09:57:05.892Z,101575.00
2023-05-20T09:59:35.676Z,101578.00
2023-05-20T10:02:03.217Z,101572.00
2023-05-20T10:04:33.236Z,101581.00
2023-05-20T10:07:00.804Z,101577.00
2023-05-20T10:09:52.137Z,101580.00
2023-05-20T10:12:38.418Z,101572.00
2023-05-20T10:15:27.307Z,101577.00
2023-05-20T10:18:16.589Z,101572.00
2023-05-20T10:20:51.262Z,101569.00
2023-05-20T10:23:29.057Z,101578.00
2023-05-20T10:25:59.475Z,101576.00
2023-05-20T10:28:38.533Z,101581.00
2023-05-20T10:31:25.825Z,101573.00
2023-05-20T10:33:54.567Z,101568.00
2023-05-20T10:36:31.947Z,101576.00
2023-05-20T10:39:00.901Z,101563.00
2023-05-20T10:41:31.426Z,101565.00
2023-05-20T10:44:05.322Z,101563.00
2023-05-20T10:46:48.344Z,101563.00
2023-05-20T10:49:25.195Z,101567.00
2023-05-20T10:51:54.540Z,101561.00
2023-05-20T10:54:23.448Z,101561.00
2023-05-20T10:56:54.515Z,101552.00
2023-05-20T10:59:22.804Z,101564.00
2023-05-20T11:01:50.445Z,101562.00
2023-05-20T11:04:19.530Z,101567.00
2023-05-20T11:06:57.753Z,101556.00
2023-05-20T11:09:25.054Z,101557.00
2023-05-20T11:11:54.207Z,101555.00
2023-05-20T11:14:22.659Z,101539.00
2023-05-20T11:16:54.597Z,101554.00
2023-05-20T11:19:22.014Z,101522.00
2023-05-20T11:21:49.587Z,101537.00
2023-05-20T11:24:26.866Z,101546.00
2023-05-20T11:26:58.194Z,101518.00
2023-05-20T11:29:29.213Z,101538.00
2023-05-20T11:32:09.327Z,101537.00
2023-05-20T11:34:38.463Z,101526.00
2023-05-20T11:37:11.673Z,101522.00
2023-05-20T11:39:39.407Z,101516.00
2023-05-20T11:42:06.696Z,101516.00
2023-05-20T11:44:34.479Z,101529.00
2023-05-20T11:47:04.251Z,101517.00
2023-05-20T11:49:40.128Z,101527.00
2023-05-20T11:52:10.841Z,101521.00
2023-05-20T11:54:37.928Z,101520.00
2023-05-20T11:57:06.962Z,101522.00
2023-05-20T11:59:34.860Z,101514.00
2023-05-20T12:02:02.011Z,101509.00
2023-05-20T12:04:29.203Z,101499.00
2023-05-20T12:06:58.387Z,101512.00
2023-05-20T12:09:25.531Z,101507.00
2023-05-20T12:11:52.598Z,101520.00
2023-05-20T12:14:19.786Z,101517.00
2023-05-20T12:16:46.934Z,101513.00
2023-05-20T12:19:16.086Z,101514.00
2023-05-20T12:21:43.206Z,101506.00
2023-05-20T12:24:11.197Z,101508.00
2023-05-20T12:26:40.481Z,101509.00
2023-05-20T12:29:07.960Z,101507.00
2023-05-20T12:31:35.412Z,101509.00
2023-05-20T12:34:03.360Z,101513.00
2023-05-20T12:36:30.714Z,101515.00
2023-05-20T12:38:57.722Z,101508.00
2023-05-20T12:41:24.946Z,101506.00
2023-05-20T12:43:52.626Z,101507.00
2023-05-20T12:46:19.738Z,101505.00
2023-05-20T12:48:47.070Z,101501.00
2023-05-20T12:51:14.157Z,101490.00
2023-05-20T12:53:41.207Z,101500.00
2023-05-20T12:56:08.637Z,101504.00
2023-05-20T12:58:36.283Z,101504.00
2023-05-20T13:01:03.454Z,101501.00
2023-05-20T13:03:30.901Z,101494.00
2023-05-20T13:05:59.475Z,101498.00
2023-05-20T13:08:28.451Z,101494.00
2023-05-20T13:10:56.000Z,101492.00
2023-05-20T13:13:23.855Z,101487.00
2023-05-20T13:15:51.424Z,101470.00
2023-05-20T13:18:19.400Z,101478.00
2023-05-20T13:20:46.693Z,101475.00
2023-05-20T13:23:13.882Z,101476.00
2023-05-20T13:25:41.213Z,101476.00
2023-05-20T13:28:10.341Z,101471.00
2023-05-20T13:30:38.243Z,101477.00
2023-05-20T13:33:05.695Z,101481.00
2023-05-20T13:35:32.840Z,101476.00
2023-05-20T13:37:59.871Z,101465.00
2023-05-20T13:40:26.944Z,101462.00
2023-05-20T13:42:54.627Z,101463.00
2023-05-20T13:45:23.888Z,101464.00
2023-05-20T13:47:51.423Z,101467.00
2023-05-20T13:50:18.624Z,101474.00
2023-05-20T13:52:45.827Z,101470.00
2023-05-20T13:55:13.229Z,101465.00
2023-05-20T13:57:40.391Z,101460.00
2023-05-20T14:00:08.510Z,101461.00
2023-05-20T14:02:35.966Z,101455.00
2023-05-20T14:05:03.370Z,101449.00
2023-05-20T14:07:30.526Z,101451.00
2023-05-20T14:10:02.709Z,101445.00
2023-05-20T14:12:30.012Z,101455.00
2023-05-20T14:14:58.396Z,101451.00
2023-05-20T14:17:26.060Z,101453.00
2023-05-20T14:19:53.217Z,101453.00
2023-05-20T14:22:20.879Z,101452.00
2023-05-20T14:24:47.970Z,101451.00
2023-05-20T14:27:15.278Z,101449.00
2023-05-20T14:29:42.462Z,101448.00
2023-05-20T14:32:11.548Z,101443.00
2023-05-20T14:34:39.058Z,101438.00
2023-05-20T14:37:09.843Z,101442.00
2023-05-20T14:39:37.476Z,101442.00
2023-05-20T14:42:05.638Z,101436.00
2023-05-20T14:44:32.820Z,101430.00
2023-05-20T14:46:59.887Z,101428.00
2023-05-20T14:49:27.240Z,101403.00
2023-05-20T14:51:54.749Z,101426.00
2023-05-20T14:54:25.142Z,101417.00
2023-05-20T14:56:52.429Z,101414.00
2023-05-20T14:59:19.620Z,101416.00
2023-05-20T15:01:46.730Z,101419.00
2023-05-20T15:04:14.022Z,101415.00
2023-05-20T15:06:41.686Z,101412.00
2023-05-20T15:09:08.959Z,101407.00
2023-05-20T15:11:36.530Z,101412.00
2023-05-20T15:14:03.766Z,101414.00
2023-05-20T15:16:33.512Z,101412.00
2023-05-20T15:19:02.070Z,101393.00
2023-05-20T15:21:29.831Z,101405.00
2023-05-20T15:23:57.393Z,101393.00
2023-05-20T15:26:26.275Z,101396.00
2023-05-20T15:28:53.502Z,101383.00
2023-05-20T15:31:20.840Z,101390.00
2023-05-20T15:33:48.121Z,101379.00
2023-05-20T15:36:15.585Z,101383.00
2023-05-20T15:38:44.390Z,101383.00
2023-05-20T15:41:13.636Z,101383.00
2023-05-20T15:43:41.181Z,101384.00
2023-05-20T15:46:08.526Z,101378.00
2023-05-20T15:48:37.856Z,101382.00
2023-05-20T15:51:05.759Z,101380.00
2023-05-20T15:53:33.190Z,101380.00
2023-05-20T15:56:00.348Z,101369.00
2023-05-20T15:58:29.017Z,101378.00
2023-05-20T16:00:56.532Z,101370.00
2023-05-20T16:03:24.079Z,101361.00
2023-05-20T16:05:52.371Z,101364.00
2023-05-20T16:08:21.064Z,101352.00
2023-05-20T16:10:48.108Z,101351.00
2023-05-20T16:13:15.534Z,101347.00
2023-05-20T16:15:42.629Z,101342.00
2023-05-20T16:18:09.775Z,101356.00
2023-05-20T16:20:36.943Z,101340.00
2023-05-20T16:23:05.393Z,101337.00
2023-05-20T16:25:32.590Z,101331.00
2023-05-20T16:28:01.039Z,101340.00
2023-05-20T16:30:29.503Z,101335.00
2023-05-20T16:32:56.891Z,101334.00
2023-05-20T16:35:24.101Z,101323.00
2023-05-20T16:37:51.075Z,101329.00
2023-05-20T16:40:18.231Z,101333.00
2023-05-20T16:42:45.517Z,101346.00
2023-05-20T16:45:12.703Z,101333.00
2023-05-20T16:47:39.807Z,101335.00
2023-05-20T16:50:07.897Z,101320.00
2023-05-20T16:52:38.142Z,101333.00
2023-05-20T16:55:08.197Z,101335.00
2023-05-20T16:57:36.353Z,101327.00
2023-05-20T17:00:08.251Z,101327.00
2023-05-20T17:02:36.275Z,101330.00
2023-05-20T17:05:04.451Z,101311.00
2023-05-20T17:07:32.036Z,101317.00
2023-05-20T17:09:59.437Z,101322.00
2023-05-20T17:12:26.533Z,101318.00
2023-05-20T17:14:54.679Z,101328.00
2023-05-20T17:17:23.057Z,101329.00
2023-05-20T17:19:50.292Z,101321.00
2023-05-20T17:22:18.205Z,101322.00
2023-05-20T17:24:45.552Z,101329.00
2023-05-20T17:27:12.533Z,101326.00
2023-05-20T17:29:39.673Z,101328.00
2023-05-20T17:32:07.345Z,101339.00
2023-05-20T17:34:34.488Z,101326.00
2023-05-20T17:37:02.182Z,101329.00
2023-05-20T17:39:29.704Z,101324.00
2023-05-20T17:41:56.899Z,101328.00
2023-05-20T17:44:25.663Z,101329.00
2023-05-20T17:46:52.771Z,101323.00
2023-05-20T17:49:19.837Z,101322.00
2023-05-20T17:51:49.298Z,101318.00
2023-05-20T17:54:16.758Z,101321.00
2023-05-20T17:56:45.439Z,101304.00
2023-05-20T17:59:12.573Z,101310.00
2023-05-20T18:01:39.834Z,101305.00
2023-05-20T18:04:07.856Z,101306.00
2023-05-20T18:06:36.502Z,101304.00
2023-05-20T18:09:06.031Z,101305.00
2023-05-20T18:11:35.030Z,101302.00
2023-05-20T18:14:02.965Z,101300.00
2023-05-20T18:16:31.505Z,101304.00
2023-05-20T18:18:58.957Z,101293.00
2023-05-20T18:21:26.587Z,101296.00
2023-05-20T18:23:53.720Z,101291.00
2023-05-20T18:26:21.696Z,101289.00
2023-05-20T18:28:49.948Z,101295.00
2023-05-20T18:31:17.544Z,101297.00
2023-05-20T18:33:44.655Z,101304.00
2023-05-20T18:36:12.008Z,101294.00
2023-05-20T18:38:41.349Z,101298.00
2023-05-20T18:41:09.349Z,101291.00
2023-05-20T18:43:36.681Z,101304.00
2023-05-20T18:46:04.460Z,101292.00
2023-05-20T18:48:32.044Z,101296.00
2023-05-20T18:50:59.532Z,101298.00
2023-05-20T18:53:26.802Z,101293.00
2023-05-20T18:55:54.101Z,101296.00
2023-05-20T18:58:22.356Z,101287.00
2023-05-20T19:00:49.649Z,101294.00
2023-05-20T19:03:17.239Z,101297.00
2023-05-20T19:05:44.354Z,101287.00
2023-05-20T19:08:11.926Z,101286.00
2023-05-20T19:10:39.562Z,101274.00
2023-05-20T19:13:06.707Z,101283.00
2023-05-20T19:15:34.755Z,101281.00
2023-05-20T19:18:02.138Z,101276.00
2023-05-20T19:20:29.377Z,101280.00
2023-05-20T19:22:56.537Z,101271.00
2023-05-20T19:25:23.851Z,101273.00
2023-05-20T19:27:51.258Z,101259.00
2023-05-20T19:30:18.355Z,101272.00
2023-05-20T19:32:45.542Z,101274.00
2023-05-20T19:35:12.692Z,101278.00
2023-05-20T19:37:39.893Z,101272.00
2023-05-20T19:40:08.089Z,101275.00
2023-05-20T19:42:35.733Z,101270.00
2023-05-20T19:45:02.964Z,101274.00
2023-05-20T19:47:30.568Z,101272.00
2023-05-20T19:49:57.779Z,101265.00
2023-05-20T19:52:25.160Z,101260.00
2023-05-20T19:54:52.291Z,101261.00
2023-05-20T19:57:19.374Z,101259.00
2023-05-20T19:59:47.766Z,101260.00
2023-05-20T20:02:14.985Z,101267.00
2023-05-20T20:04:42.324Z,101267.00
2023-05-20T20:07:09.537Z,101269.00
2023-05-20T20:09:36.923Z,101264.00
2023-05-20T20:12:05.356Z,101274.00
2023-05-20T20:14:33.026Z,101268.00
2023-05-20T20:17:00.522Z,101277.00
2023-05-20T20:19:28.671Z,101266.00
2023-05-20T20:21:56.720Z,101272.00
2023-05-20T20:24:24.237Z,101256.00
2023-05-20T20:26:54.189Z,101271.00
2023-05-20T20:29:24.758Z,101267.00
2023-05-20T20:31:52.446Z,101264.00
2023-05-20T20:34:19.534Z,101259.00
2023-05-20T20:36:47.243Z,101257.00
2023-05-20T20:39:19.197Z,101259.00
2023-05-20T20:41:50.636Z,101263.00
2023-05-20T20:44:21.091Z,101260.00
2023-05-20T20:46:52.363Z,101266.00
2023-05-20T20:49:21.341Z,101271.00
2023-05-20T20:51:51.900Z,101262.00
2023-05-20T20:54:19.003Z,101273.00
2023-05-20T20:56:47.242Z,101270.00
2023-05-20T20:59:15.870Z,101277.00
2023-05-20T21:01:45.371Z,101269.00
2023-05-20T21:04:14.436Z,101278.00
2023-05-20T21:06:42.791Z,101260.00
2023-05-20T21:09:09.810Z,101274.00
2023-05-20T21:11:42.452Z,101262.00
2023-05-20T21:14:10.423Z,101254.00
2023-05-20T21:16:38.045Z,101268.00
2023-05-20T21:19:06.140Z,101260.00
2023-05-20T21:21:33.326Z,101263.00
2023-05-20T21:24:00.634Z,101259.00
2023-05-20T21:26:27.662Z,101263.00
2023-05-20T21:28:54.958Z,101262.00
2023-05-20T21:31:22.115Z,101263.00
2023-05-20T21:33:49.200Z,101257.00
2023-05-20T21:36:16.450Z,101257.00
2023-05-20T21:38:43.592Z,101251.00
2023-05-20T21:41:10.830Z,101252.00
2023-05-20T21:43:37.827Z,101251.00
2023-05-20T21:46:06.179Z,101250.00
2023-05-20T21:48:33.189Z,101183.00
2023-05-20T21:51:00.890Z,101251.00
2023-05-20T21:53:27.873Z,101260.00
2023-05-20T21:55:55.056Z,101255.00
2023-05-20T21:58:22.091Z,101263.00
2023-05-20T22:00:49.390Z,101263.00
2023-05-20T22:03:16.564Z,101263.00
2023-05-20T22:05:46.351Z,101264.00
2023-05-20T22:08:14.160Z,101275.00
2023-05-20T22:10:41.603Z,101262.00
2023-05-20T22:13:11.123Z,101262.00
2023-05-20T22:15:38.283Z,101266.00
2023-05-20T22:18:07.645Z,101257.00
2023-05-20T22:20:35.135Z,101270.00
2023-05-20T22:23:04.616Z,101268.00
2023-05-20T22:25:32.327Z,101263.00
2023-05-20T22:27:59.327Z,101268.00
2023-05-20T22:30:26.459Z,101260.00
2023-05-20T22:32:53.592Z,101264.00
2023-05-20T22:35:23.949Z,101262.00
2023-05-20T22:37:51.223Z,101261.00
2023-05-20T22:40:18.363Z,101266.00
2023-05-20T22:42:45.962Z,101263.00
2023-05-20T22:45:13.099Z,101267.00
2023-05-20T22:47:40.113Z,101262.00
2023-05-20T22:50:08.895Z,101264.00
2023-05-20T22:52:36.966Z,101254.00
2023-05-20T22:55:04.363Z,101257.00
2023-05-20T22:57:31.405Z,101247.00
2023-05-20T22:59:58.676Z,101252.00
2023-05-20T23:02:26.096Z,101251.00
2023-05-20T23:04:53.435Z,101247.00
2023-05-20T23:07:21.920Z,101257.00
2023-05-20T23:09:49.212Z,101251.00
2023-05-20T23:12:16.637Z,101251.00
2023-05-20T23:14:43.635Z,101256.00
2023-05-20T23:17:10.851Z,101247.00
2023-05-20T23:19:37.954Z,101246.00
2023-05-20T23:22:05.416Z,101249.00
2023-05-20T23:24:32.410Z,101234.00
2023-05-20T23:27:00.184Z,101250.00
2023-05-20T23:29:27.343Z,101253.00
2023-05-20T23:31:54.395Z,101250.00
2023-05-20T23:34:22.008Z,101245.00
2023-05-20T23:36:50.193Z,101249.00
2023-05-20T23:39:18.548Z,101248.00
2023-05-20T23:41:45.710Z,101244.00
2023-05-20T23:44:12.691Z,101245.00
2023-05-20T23:46:39.990Z,101244.00
2023-05-20T23:49:10.286Z,101246.00
2023-05-20T23:51:37.332Z,101238.00
2023-05-20T23:54:04.662Z,101235.00
2023-05-20T23:56:31.809Z,101232.00
2023-05-20T23:58:59.020Z,101234.00
